createdAt,value
2022-10-26T00:00:00.173Z,1017.79
2022-10-26T00:01:05.414Z,1017.78
2022-10-26T00:02:02.157Z,1017.82
2022-10-26T00:03:01.504Z,1017.8
2022-10-26T00:04:01.538Z,1017.8
2022-10-26T00:05:01.137Z,1017.81
2022-10-26T00:06:07.614Z,1017.82
2022-10-26T00:07:01.185Z,1017.81
2022-10-26T00:08:01.072Z,1017.82
2022-10-26T00:09:01.666Z,1017.81
2022-10-26T00:10:01.371Z,1017.78
2022-10-26T00:11:11.177Z,1017.8
2022-10-26T00:12:01.478Z,1017.79
2022-10-26T00:13:01.042Z,1017.78
2022-10-26T00:14:01.097Z,1017.77
2022-10-26T00:15:01.138Z,1017.72
2022-10-26T00:16:15.891Z,1017.81
2022-10-26T00:17:02.142Z,1017.75
2022-10-26T00:18:01.232Z,1017.77
2022-10-26T00:19:01.130Z,1017.77
2022-10-26T00:20:01.263Z,1017.74
2022-10-26T00:21:01.185Z,1017.81
2022-10-26T00:22:01.153Z,1017.79
2022-10-26T00:23:01.170Z,1017.85
2022-10-26T00:24:01.078Z,1017.82
2022-10-26T00:25:01.081Z,1017.79
2022-10-26T00:26:01.668Z,1017.84
2022-10-26T00:27:02.285Z,1017.83
2022-10-26T00:28:01.761Z,1017.91
2022-10-26T00:29:01.150Z,1017.86
2022-10-26T00:30:01.111Z,1017.91
2022-10-26T00:31:01.087Z,1017.91
2022-10-26T00:32:01.319Z,1017.92
2022-10-26T00:33:01.317Z,1017.88
2022-10-26T00:34:01.322Z,1017.89
2022-10-26T00:35:10.571Z,1017.93
2022-10-26T00:36:02.115Z,1017.92
2022-10-26T00:37:02.671Z,1017.93
2022-10-26T00:38:01.047Z,1017.95
2022-10-26T00:39:01.057Z,1017.94
2022-10-26T00:40:01.147Z,1017.94
2022-10-26T00:41:01.075Z,1017.92
2022-10-26T00:42:01.478Z,1017.91
2022-10-26T00:43:01.192Z,1017.91
2022-10-26T00:44:01.225Z,1017.98
2022-10-26T00:45:04.290Z,1017.96
2022-10-26T00:46:01.796Z,1017.94
2022-10-26T00:47:01.729Z,1017.99
2022-10-26T00:48:01.852Z,1017.98
2022-10-26T00:49:01.664Z,1017.98
2022-10-26T00:50:01.137Z,1017.98
2022-10-26T00:51:01.155Z,1017.97
2022-10-26T00:52:01.528Z,1017.99
2022-10-26T00:53:01.149Z,1018
2022-10-26T00:54:01.168Z,1017.96
2022-10-26T00:55:01.083Z,1017.98
2022-10-26T00:56:01.084Z,1017.97
2022-10-26T00:57:01.172Z,1017.99
2022-10-26T00:58:01.121Z,1017.95
2022-10-26T00:59:01.036Z,1017.95
2022-10-26T01:00:01.081Z,1017.92
2022-10-26T01:01:01.100Z,1017.9
2022-10-26T01:02:01.244Z,1017.9
2022-10-26T01:03:01.252Z,1017.95
2022-10-26T01:04:01.347Z,1017.93
2022-10-26T01:05:02.564Z,1017.94
2022-10-26T01:06:01.487Z,1017.94
2022-10-26T01:07:02.251Z,1017.92
2022-10-26T01:08:01.184Z,1017.89
2022-10-26T01:09:01.163Z,1017.89
2022-10-26T01:10:01.163Z,1017.83
2022-10-26T01:11:01.091Z,1017.83
2022-10-26T01:12:01.119Z,1017.84
2022-10-26T01:13:01.904Z,1017.75
2022-10-26T01:14:01.887Z,1017.78
2022-10-26T01:15:00.684Z,1017.76
2022-10-26T01:16:00.436Z,1017.77
2022-10-26T01:17:00.335Z,1017.75
2022-10-26T01:18:00.308Z,1017.79
2022-10-26T01:19:00.084Z,1017.8
2022-10-26T01:19:59.767Z,1017.78
2022-10-26T01:21:01.562Z,1017.81
2022-10-26T01:22:01.958Z,1017.9
2022-10-26T01:23:01.666Z,1017.88
2022-10-26T01:24:01.063Z,1017.84
2022-10-26T01:25:01.144Z,1017.89
2022-10-26T01:26:01.162Z,1017.87
2022-10-26T01:27:01.075Z,1017.86
2022-10-26T01:28:01.092Z,1017.83
2022-10-26T01:29:01.072Z,1017.82
2022-10-26T01:30:00.069Z,1017.82
2022-10-26T01:30:59.649Z,1017.79
2022-10-26T01:32:01.219Z,1017.83
2022-10-26T01:33:01.114Z,1017.85
2022-10-26T01:34:01.110Z,1017.84
2022-10-26T01:35:01.466Z,1017.84
2022-10-26T01:36:01.128Z,1017.87
2022-10-26T01:37:01.134Z,1017.82
2022-10-26T01:38:01.172Z,1017.79
2022-10-26T01:39:01.159Z,1017.8
2022-10-26T01:40:01.564Z,1017.85
2022-10-26T01:41:01.544Z,1017.84
2022-10-26T01:42:02.655Z,1017.89
2022-10-26T01:43:01.168Z,1017.84
2022-10-26T01:44:01.362Z,1017.82
2022-10-26T01:45:01.040Z,1017.8
2022-10-26T01:46:01.191Z,1017.83
2022-10-26T01:47:05.766Z,1017.78
2022-10-26T01:48:01.498Z,1017.81
2022-10-26T01:49:01.474Z,1017.78
2022-10-26T01:50:02.150Z,1017.78
2022-10-26T01:51:01.150Z,1017.8
2022-10-26T01:52:09.584Z,1017.83
2022-10-26T01:53:01.573Z,1017.83
2022-10-26T01:54:02.198Z,1017.79
2022-10-26T01:55:02.103Z,1017.78
2022-10-26T01:56:01.053Z,1017.81
2022-10-26T01:57:13.661Z,1017.76
2022-10-26T01:58:01.155Z,1017.77
2022-10-26T01:59:01.854Z,1017.77
2022-10-26T02:00:01.170Z,1017.77
2022-10-26T02:01:01.773Z,1017.75
2022-10-26T02:02:15.849Z,1017.77
2022-10-26T02:03:01.486Z,1017.77
2022-10-26T02:04:01.245Z,1017.75
2022-10-26T02:05:02.550Z,1017.73
2022-10-26T02:06:01.090Z,1017.72
2022-10-26T02:07:01.104Z,1017.72
2022-10-26T02:08:01.113Z,1017.72
2022-10-26T02:09:01.150Z,1017.72
2022-10-26T02:10:01.128Z,1017.76
2022-10-26T02:11:01.156Z,1017.76
2022-10-26T02:12:01.143Z,1017.73
2022-10-26T02:13:01.047Z,1017.79
2022-10-26T02:14:00.821Z,1017.76
2022-10-26T02:15:00.501Z,1017.74
2022-10-26T02:16:00.147Z,1017.69
2022-10-26T02:16:59.827Z,1017.7
2022-10-26T02:18:02.015Z,1017.69
2022-10-26T02:19:00.559Z,1017.71
2022-10-26T02:20:00.280Z,1017.67
2022-10-26T02:20:59.988Z,1017.66
2022-10-26T02:21:59.642Z,1017.68
2022-10-26T02:23:01.521Z,1017.65
2022-10-26T02:24:01.127Z,1017.65
2022-10-26T02:25:01.112Z,1017.63
2022-10-26T02:26:01.142Z,1017.57
2022-10-26T02:27:01.137Z,1017.62
2022-10-26T02:28:01.453Z,1017.62
2022-10-26T02:29:01.513Z,1017.6
2022-10-26T02:30:01.207Z,1017.58
2022-10-26T02:31:01.064Z,1017.59
2022-10-26T02:32:01.165Z,1017.6
2022-10-26T02:33:01.062Z,1017.6
2022-10-26T02:34:01.075Z,1017.6
2022-10-26T02:35:01.218Z,1017.6
2022-10-26T02:36:01.218Z,1017.61
2022-10-26T02:37:02.182Z,1017.62
2022-10-26T02:38:01.123Z,1017.56
2022-10-26T02:39:01.117Z,1017.61
2022-10-26T02:40:01.118Z,1017.62
2022-10-26T02:41:01.255Z,1017.62
2022-10-26T02:42:01.262Z,1017.67
2022-10-26T02:43:02.499Z,1017.69
2022-10-26T02:44:00.919Z,1017.67
2022-10-26T02:45:01.135Z,1017.66
2022-10-26T02:46:01.145Z,1017.69
2022-10-26T02:47:01.055Z,1017.7
2022-10-26T02:48:01.159Z,1017.67
2022-10-26T02:49:01.378Z,1017.69
2022-10-26T02:50:01.091Z,1017.67
2022-10-26T02:51:01.044Z,1017.66
2022-10-26T02:52:01.094Z,1017.72
2022-10-26T02:53:01.429Z,1017.71
2022-10-26T02:54:02.529Z,1017.66
2022-10-26T02:55:02.311Z,1017.67
2022-10-26T02:56:01.106Z,1017.64
2022-10-26T02:57:01.062Z,1017.61
2022-10-26T02:58:01.152Z,1017.62
2022-10-26T02:59:01.135Z,1017.63
2022-10-26T03:00:01.238Z,1017.62
2022-10-26T03:01:01.455Z,1017.61
2022-10-26T03:02:01.462Z,1017.64
2022-10-26T03:03:01.096Z,1017.61
2022-10-26T03:04:01.127Z,1017.63
2022-10-26T03:05:01.072Z,1017.66
2022-10-26T03:06:01.076Z,1017.59
2022-10-26T03:07:01.102Z,1017.64
2022-10-26T03:08:01.082Z,1017.65
2022-10-26T03:09:01.084Z,1017.71
2022-10-26T03:10:01.574Z,1017.68
2022-10-26T03:11:01.131Z,1017.7
2022-10-26T03:12:01.101Z,1017.72
2022-10-26T03:13:01.039Z,1017.71
2022-10-26T03:14:01.079Z,1017.72
2022-10-26T03:15:01.052Z,1017.71
2022-10-26T03:16:01.499Z,1017.73
2022-10-26T03:17:01.519Z,1017.72
2022-10-26T03:18:02.041Z,1017.73
2022-10-26T03:19:01.715Z,1017.75
2022-10-26T03:20:01.080Z,1017.76
2022-10-26T03:21:01.076Z,1017.77
2022-10-26T03:22:01.053Z,1017.8
2022-10-26T03:23:05.798Z,1017.81
2022-10-26T03:24:01.091Z,1017.73
2022-10-26T03:25:00.777Z,1017.77
2022-10-26T03:26:00.488Z,1017.79
2022-10-26T03:27:02.244Z,1017.74
2022-10-26T03:28:08.751Z,1017.8
2022-10-26T03:29:01.197Z,1017.76
2022-10-26T03:30:01.131Z,1017.76
2022-10-26T03:31:01.132Z,1017.79
2022-10-26T03:32:01.137Z,1017.79
2022-10-26T03:33:11.529Z,1017.74
2022-10-26T03:34:01.352Z,1017.8
2022-10-26T03:35:03.146Z,1017.77
2022-10-26T03:36:01.309Z,1017.79
2022-10-26T03:37:01.072Z,1017.8
2022-10-26T03:38:16.047Z,1017.77
2022-10-26T03:39:01.096Z,1017.79
2022-10-26T03:40:01.103Z,1017.78
2022-10-26T03:41:01.302Z,1017.83
2022-10-26T03:42:01.475Z,1017.81
2022-10-26T03:43:01.221Z,1017.86
2022-10-26T03:44:01.119Z,1017.85
2022-10-26T03:45:01.134Z,1017.86
2022-10-26T03:46:01.121Z,1017.84
2022-10-26T03:47:01.128Z,1017.86
2022-10-26T03:48:01.147Z,1017.83
2022-10-26T03:49:01.344Z,1017.76
2022-10-26T03:50:01.602Z,1017.83
2022-10-26T03:51:04.028Z,1017.76
2022-10-26T03:52:16.427Z,1017.8
2022-10-26T03:53:01.066Z,1017.78
2022-10-26T03:54:01.068Z,1017.79
2022-10-26T03:55:01.092Z,1017.77
2022-10-26T03:56:01.265Z,1017.77
2022-10-26T03:57:01.998Z,1017.74
2022-10-26T03:58:01.108Z,1017.73
2022-10-26T03:59:01.733Z,1017.75
2022-10-26T04:00:01.128Z,1017.76
2022-10-26T04:01:01.139Z,1017.76
2022-10-26T04:02:01.189Z,1017.78
2022-10-26T04:03:01.126Z,1017.81
2022-10-26T04:04:01.184Z,1017.75
2022-10-26T04:05:01.138Z,1017.75
2022-10-26T04:06:01.156Z,1017.79
2022-10-26T04:07:01.171Z,1017.79
2022-10-26T04:08:01.056Z,1017.76
2022-10-26T04:09:01.375Z,1017.82
2022-10-26T04:10:02.102Z,1017.8
2022-10-26T04:11:03.826Z,1017.78
2022-10-26T04:12:01.209Z,1017.79
2022-10-26T04:13:02.135Z,1017.78
2022-10-26T04:14:01.102Z,1017.76
2022-10-26T04:15:01.110Z,1017.74
2022-10-26T04:16:01.116Z,1017.75
2022-10-26T04:17:01.474Z,1017.71
2022-10-26T04:18:01.116Z,1017.77
2022-10-26T04:19:01.108Z,1017.81
2022-10-26T04:20:01.143Z,1017.77
2022-10-26T04:21:01.342Z,1017.79
2022-10-26T04:22:01.196Z,1017.82
2022-10-26T04:23:01.166Z,1017.8
2022-10-26T04:24:01.725Z,1017.82
2022-10-26T04:25:01.064Z,1017.83
2022-10-26T04:26:01.103Z,1017.79
2022-10-26T04:27:01.994Z,1017.77
2022-10-26T04:28:01.102Z,1017.83
2022-10-26T04:29:01.094Z,1017.77
2022-10-26T04:30:01.558Z,1017.76
2022-10-26T04:31:01.102Z,1017.79
2022-10-26T04:32:01.045Z,1017.78
2022-10-26T04:33:01.159Z,1017.78
2022-10-26T04:34:01.250Z,1017.83
2022-10-26T04:35:01.979Z,1017.84
2022-10-26T04:36:01.033Z,1017.88
2022-10-26T04:37:00.713Z,1017.84
2022-10-26T04:38:00.453Z,1017.85
2022-10-26T04:39:00.139Z,1017.84
2022-10-26T04:39:59.885Z,1017.8
2022-10-26T04:40:59.615Z,1017.8
2022-10-26T04:42:01.272Z,1017.81
2022-10-26T04:43:01.233Z,1017.8
2022-10-26T04:44:01.101Z,1017.79
2022-10-26T04:45:01.110Z,1017.79
2022-10-26T04:46:01.476Z,1017.8
2022-10-26T04:47:02.140Z,1017.79
2022-10-26T04:48:02.418Z,1017.8
2022-10-26T04:49:01.132Z,1017.73
2022-10-26T04:50:01.155Z,1017.74
2022-10-26T04:51:01.145Z,1017.76
2022-10-26T04:52:01.143Z,1017.73
2022-10-26T04:53:01.182Z,1017.72
2022-10-26T04:54:01.081Z,1017.71
2022-10-26T04:55:01.080Z,1017.67
2022-10-26T04:56:01.217Z,1017.69
2022-10-26T04:57:01.064Z,1017.73
2022-10-26T04:58:01.808Z,1017.71
2022-10-26T04:59:04.301Z,1017.76
2022-10-26T05:00:01.876Z,1017.77
2022-10-26T05:01:02.147Z,1017.79
2022-10-26T05:02:01.239Z,1017.79
2022-10-26T05:03:01.277Z,1017.75
2022-10-26T05:04:06.814Z,1017.75
2022-10-26T05:05:01.196Z,1017.75
2022-10-26T05:06:01.120Z,1017.75
2022-10-26T05:07:01.129Z,1017.7
2022-10-26T05:08:01.159Z,1017.71
2022-10-26T05:09:10.150Z,1017.72
2022-10-26T05:10:01.518Z,1017.69
2022-10-26T05:11:01.450Z,1017.75
2022-10-26T05:12:01.163Z,1017.74
2022-10-26T05:13:04.685Z,1017.69
2022-10-26T05:14:14.015Z,1017.71
2022-10-26T05:15:03.984Z,1017.76
2022-10-26T05:16:01.169Z,1017.78
2022-10-26T05:17:02.076Z,1017.78
2022-10-26T05:18:01.154Z,1017.75
2022-10-26T05:19:15.739Z,1017.73
2022-10-26T05:20:01.814Z,1017.72
2022-10-26T05:21:01.539Z,1017.68
2022-10-26T05:22:00.637Z,1017.72
2022-10-26T05:23:00.378Z,1017.69
2022-10-26T05:24:00.505Z,1017.75
2022-10-26T05:25:00.088Z,1017.75
2022-10-26T05:25:59.708Z,1017.71
2022-10-26T05:27:01.350Z,1017.74
2022-10-26T05:28:01.457Z,1017.72
2022-10-26T05:29:01.185Z,1017.7
2022-10-26T05:30:01.156Z,1017.64
2022-10-26T05:31:02.006Z,1017.63
2022-10-26T05:32:00.689Z,1017.68
2022-10-26T05:33:00.395Z,1017.67
2022-10-26T05:34:00.081Z,1017.68
2022-10-26T05:34:59.794Z,1017.66
2022-10-26T05:36:01.828Z,1017.69
2022-10-26T05:37:02.855Z,1017.71
2022-10-26T05:38:01.156Z,1017.71
2022-10-26T05:39:01.153Z,1017.74
2022-10-26T05:40:01.445Z,1017.75
2022-10-26T05:41:02.248Z,1017.75
2022-10-26T05:42:01.339Z,1017.74
2022-10-26T05:43:01.162Z,1017.74
2022-10-26T05:44:01.051Z,1017.76
2022-10-26T05:45:00.753Z,1017.76
2022-10-26T05:46:00.470Z,1017.75
2022-10-26T05:47:00.278Z,1017.74
2022-10-26T05:48:02.605Z,1017.8
2022-10-26T05:49:04.018Z,1017.79
2022-10-26T05:50:02.194Z,1017.77
2022-10-26T05:51:01.440Z,1017.76
2022-10-26T05:52:01.016Z,1017.83
2022-10-26T05:53:01.169Z,1017.8
2022-10-26T05:54:01.119Z,1017.84
2022-10-26T05:55:01.152Z,1017.83
2022-10-26T05:56:04.054Z,1017.83
2022-10-26T05:57:02.692Z,1017.85
2022-10-26T05:58:01.340Z,1017.85
2022-10-26T05:59:01.409Z,1017.88
2022-10-26T06:00:02.558Z,1017.87
2022-10-26T06:01:01.120Z,1017.87
2022-10-26T06:02:01.261Z,1017.84
2022-10-26T06:03:01.048Z,1017.86
2022-10-26T06:04:01.087Z,1017.92
2022-10-26T06:05:01.109Z,1017.88
2022-10-26T06:06:02.764Z,1017.96
2022-10-26T06:07:01.224Z,1017.92
2022-10-26T06:08:01.234Z,1017.92
2022-10-26T06:09:01.263Z,1017.97
2022-10-26T06:10:00.909Z,1017.94
2022-10-26T06:11:01.367Z,1017.97
2022-10-26T06:12:01.216Z,1018.01
2022-10-26T06:13:01.033Z,1017.98
2022-10-26T06:14:01.153Z,1018
2022-10-26T06:15:01.291Z,1018
2022-10-26T06:16:01.303Z,1017.97
2022-10-26T06:17:01.302Z,1018.02
2022-10-26T06:18:01.317Z,1017.99
2022-10-26T06:19:02.097Z,1018
2022-10-26T06:20:01.354Z,1018
2022-10-26T06:21:01.086Z,1018
2022-10-26T06:22:01.099Z,1018
2022-10-26T06:23:01.111Z,1018.03
2022-10-26T06:24:01.122Z,1018.1
2022-10-26T06:25:01.416Z,1018.04
2022-10-26T06:26:01.454Z,1018.09
2022-10-26T06:27:01.513Z,1018.07
2022-10-26T06:28:02.552Z,1018.09
2022-10-26T06:29:01.141Z,1018.09
2022-10-26T06:30:00.771Z,1018.11
2022-10-26T06:31:01.064Z,1018.12
2022-10-26T06:32:01.070Z,1018.14
2022-10-26T06:33:11.429Z,1018.09
2022-10-26T06:34:01.872Z,1018.09
2022-10-26T06:35:06.897Z,1018.13
2022-10-26T06:36:01.197Z,1018.12
2022-10-26T06:37:02.326Z,1018.14
2022-10-26T06:38:01.398Z,1018.1
2022-10-26T06:39:01.025Z,1018.12
2022-10-26T06:40:01.327Z,1018.11
2022-10-26T06:41:01.120Z,1018.12
2022-10-26T06:42:01.120Z,1018.13
2022-10-26T06:43:01.255Z,1018.17
2022-10-26T06:44:01.145Z,1018.13
2022-10-26T06:45:01.192Z,1018.17
2022-10-26T06:46:01.156Z,1018.19
2022-10-26T06:47:01.155Z,1018.16
2022-10-26T06:48:01.058Z,1018.14
2022-10-26T06:49:01.063Z,1018.18
2022-10-26T06:50:00.683Z,1018.15
2022-10-26T06:51:00.358Z,1018.13
2022-10-26T06:51:59.944Z,1018.15
2022-10-26T06:52:59.570Z,1018.18
2022-10-26T06:54:01.802Z,1018.2
2022-10-26T06:55:05.258Z,1018.18
2022-10-26T06:56:01.794Z,1018.14
2022-10-26T06:57:01.131Z,1018.18
2022-10-26T06:58:01.129Z,1018.17
2022-10-26T06:59:03.421Z,1018.14
2022-10-26T07:00:06.670Z,1018.14
2022-10-26T07:01:01.145Z,1018.15
2022-10-26T07:02:04.191Z,1018.15
2022-10-26T07:03:01.511Z,1018.19
2022-10-26T07:04:01.090Z,1018.17
2022-10-26T07:05:10.257Z,1018.2
2022-10-26T07:06:01.750Z,1018.21
2022-10-26T07:07:01.373Z,1018.27
2022-10-26T07:08:01.388Z,1018.25
2022-10-26T07:09:01.413Z,1018.25
2022-10-26T07:10:11.928Z,1018.24
2022-10-26T07:11:01.713Z,1018.22
2022-10-26T07:12:01.412Z,1018.22
2022-10-26T07:13:01.053Z,1018.28
2022-10-26T07:14:01.126Z,1018.26
2022-10-26T07:15:16.596Z,1018.25
2022-10-26T07:16:01.608Z,1018.27
2022-10-26T07:17:01.262Z,1018.28
2022-10-26T07:18:02.456Z,1018.26
2022-10-26T07:19:01.367Z,1018.25
2022-10-26T07:20:02.090Z,1018.23
2022-10-26T07:21:02.407Z,1018.27
2022-10-26T07:22:01.373Z,1018.25
2022-10-26T07:23:02.616Z,1018.27
2022-10-26T07:24:02.095Z,1018.29
2022-10-26T07:25:03.124Z,1018.27
2022-10-26T07:26:01.143Z,1018.29
2022-10-26T07:27:01.126Z,1018.27
2022-10-26T07:28:01.133Z,1018.29
2022-10-26T07:29:01.122Z,1018.27
2022-10-26T07:30:01.051Z,1018.3
2022-10-26T07:31:01.844Z,1018.28
2022-10-26T07:32:01.340Z,1018.3
2022-10-26T07:33:01.165Z,1018.35
2022-10-26T07:34:01.177Z,1018.35
2022-10-26T07:35:01.445Z,1018.34
2022-10-26T07:36:01.174Z,1018.38
2022-10-26T07:37:01.374Z,1018.36
2022-10-26T07:38:01.072Z,1018.36
2022-10-26T07:39:01.144Z,1018.4
2022-10-26T07:40:05.606Z,1018.4
2022-10-26T07:41:01.084Z,1018.43
2022-10-26T07:42:01.320Z,1018.41
2022-10-26T07:43:01.488Z,1018.43
2022-10-26T07:44:01.505Z,1018.44
2022-10-26T07:45:01.321Z,1018.4
2022-10-26T07:46:01.132Z,1018.42
2022-10-26T07:47:01.463Z,1018.41
2022-10-26T07:48:01.181Z,1018.42
2022-10-26T07:49:01.079Z,1018.41
2022-10-26T07:50:01.077Z,1018.43
2022-10-26T07:51:03.145Z,1018.41
2022-10-26T07:52:01.185Z,1018.43
2022-10-26T07:53:02.569Z,1018.42
2022-10-26T07:54:01.071Z,1018.4
2022-10-26T07:55:01.114Z,1018.41
2022-10-26T07:56:01.129Z,1018.43
2022-10-26T07:57:01.190Z,1018.4
2022-10-26T07:58:01.845Z,1018.37
2022-10-26T07:59:01.103Z,1018.4
2022-10-26T08:00:01.110Z,1018.41
2022-10-26T08:01:01.689Z,1018.42
2022-10-26T08:02:01.417Z,1018.4
2022-10-26T08:03:02.103Z,1018.35
2022-10-26T08:04:02.564Z,1018.33
2022-10-26T08:05:01.135Z,1018.36
2022-10-26T08:06:01.162Z,1018.32
2022-10-26T08:07:01.215Z,1018.33
2022-10-26T08:08:01.055Z,1018.36
2022-10-26T08:09:01.113Z,1018.36
2022-10-26T08:10:01.045Z,1018.4
2022-10-26T08:11:01.471Z,1018.41
2022-10-26T08:12:01.351Z,1018.45
2022-10-26T08:13:01.111Z,1018.41
2022-10-26T08:14:01.092Z,1018.39
2022-10-26T08:15:01.126Z,1018.4
2022-10-26T08:16:01.118Z,1018.41
2022-10-26T08:17:01.127Z,1018.41
2022-10-26T08:18:01.130Z,1018.46
2022-10-26T08:19:01.130Z,1018.46
2022-10-26T08:20:01.130Z,1018.48
2022-10-26T08:21:10.151Z,1018.46
2022-10-26T08:22:01.380Z,1018.51
2022-10-26T08:23:03.068Z,1018.53
2022-10-26T08:24:01.075Z,1018.53
2022-10-26T08:25:01.205Z,1018.49
2022-10-26T08:26:02.021Z,1018.52
2022-10-26T08:27:01.222Z,1018.54
2022-10-26T08:28:01.064Z,1018.53
2022-10-26T08:29:01.261Z,1018.55
2022-10-26T08:30:02.030Z,1018.54
2022-10-26T08:31:02.340Z,1018.55
2022-10-26T08:32:02.502Z,1018.49
2022-10-26T08:33:01.045Z,1018.56
2022-10-26T08:34:01.139Z,1018.52
2022-10-26T08:35:01.137Z,1018.53
2022-10-26T08:36:01.172Z,1018.56
2022-10-26T08:37:01.066Z,1018.52
2022-10-26T08:38:01.646Z,1018.54
2022-10-26T08:39:01.495Z,1018.55
2022-10-26T08:40:03.101Z,1018.53
2022-10-26T08:41:02.622Z,1018.52
2022-10-26T08:42:01.749Z,1018.56
2022-10-26T08:43:01.256Z,1018.55
2022-10-26T08:44:01.900Z,1018.52
2022-10-26T08:45:01.093Z,1018.52
2022-10-26T08:46:05.925Z,1018.52
2022-10-26T08:47:02.537Z,1018.51
2022-10-26T08:48:01.116Z,1018.53
2022-10-26T08:49:01.113Z,1018.53
2022-10-26T08:50:01.121Z,1018.49
2022-10-26T08:51:09.512Z,1018.49
2022-10-26T08:52:02.496Z,1018.47
2022-10-26T08:53:01.247Z,1018.53
2022-10-26T08:54:02.470Z,1018.49
2022-10-26T08:55:01.255Z,1018.49
2022-10-26T08:56:11.808Z,1018.48
2022-10-26T08:57:01.094Z,1018.48
2022-10-26T08:58:01.084Z,1018.5
2022-10-26T08:59:01.120Z,1018.52
2022-10-26T09:00:01.091Z,1018.52
2022-10-26T09:01:15.486Z,1018.46
2022-10-26T09:02:01.830Z,1018.48
2022-10-26T09:03:01.546Z,1018.44
2022-10-26T09:05:01.113Z,1018.43
2022-10-26T09:06:01.419Z,1018.47
2022-10-26T09:07:01.205Z,1018.5
2022-10-26T09:08:01.242Z,1018.49
2022-10-26T09:09:01.049Z,1018.51
2022-10-26T09:10:01.188Z,1018.48
2022-10-26T09:11:01.169Z,1018.5
2022-10-26T09:12:02.918Z,1018.47
2022-10-26T09:13:00.870Z,1018.54
2022-10-26T09:14:01.070Z,1018.52
2022-10-26T09:15:01.090Z,1018.53
2022-10-26T09:16:01.091Z,1018.52
2022-10-26T09:17:00.766Z,1018.52
2022-10-26T09:18:00.483Z,1018.51
2022-10-26T09:19:02.664Z,1018.53
2022-10-26T09:20:01.119Z,1018.49
2022-10-26T09:21:01.113Z,1018.51
2022-10-26T09:22:02.331Z,1018.51
2022-10-26T09:23:01.162Z,1018.53
2022-10-26T09:24:01.148Z,1018.52
2022-10-26T09:25:05.350Z,1018.51
2022-10-26T09:26:01.056Z,1018.55
2022-10-26T09:27:01.235Z,1018.53
2022-10-26T09:28:01.417Z,1018.58
2022-10-26T09:29:01.974Z,1018.54
2022-10-26T09:30:01.071Z,1018.57
2022-10-26T09:31:01.071Z,1018.53
2022-10-26T09:32:01.093Z,1018.54
2022-10-26T09:33:00.881Z,1018.51
2022-10-26T09:34:01.117Z,1018.5
2022-10-26T09:35:02.233Z,1018.51
2022-10-26T09:36:01.150Z,1018.52
2022-10-26T09:37:01.174Z,1018.47
2022-10-26T09:38:01.126Z,1018.47
2022-10-26T09:39:01.149Z,1018.47
2022-10-26T09:40:01.133Z,1018.52
2022-10-26T09:41:01.134Z,1018.48
2022-10-26T09:42:01.567Z,1018.5
2022-10-26T09:43:01.283Z,1018.51
2022-10-26T09:44:01.082Z,1018.51
2022-10-26T09:45:01.063Z,1018.49
2022-10-26T09:46:01.178Z,1018.51
2022-10-26T09:47:01.078Z,1018.51
2022-10-26T09:48:03.934Z,1018.5
2022-10-26T09:49:01.108Z,1018.51
2022-10-26T09:50:01.107Z,1018.53
2022-10-26T09:51:04.482Z,1018.52
2022-10-26T09:52:01.687Z,1018.53
2022-10-26T09:53:01.114Z,1018.56
2022-10-26T09:54:01.118Z,1018.51
2022-10-26T09:55:01.154Z,1018.57
2022-10-26T09:56:01.176Z,1018.56
2022-10-26T09:57:01.142Z,1018.62
2022-10-26T09:58:01.167Z,1018.59
2022-10-26T09:59:01.160Z,1018.6
2022-10-26T10:00:01.466Z,1018.61
2022-10-26T10:01:01.065Z,1018.58
2022-10-26T10:02:01.917Z,1018.58
2022-10-26T10:03:01.864Z,1018.6
2022-10-26T10:04:01.093Z,1018.6
2022-10-26T10:05:01.088Z,1018.56
2022-10-26T10:06:01.101Z,1018.59
2022-10-26T10:07:01.486Z,1018.59
2022-10-26T10:08:01.114Z,1018.64
2022-10-26T10:09:01.118Z,1018.59
2022-10-26T10:10:02.045Z,1018.61
2022-10-26T10:11:01.178Z,1018.58
2022-10-26T10:12:01.169Z,1018.57
2022-10-26T10:13:00.911Z,1018.56
2022-10-26T10:14:01.156Z,1018.55
2022-10-26T10:15:01.421Z,1018.55
2022-10-26T10:16:01.436Z,1018.57
2022-10-26T10:17:02.276Z,1018.58
2022-10-26T10:18:01.112Z,1018.54
2022-10-26T10:19:01.112Z,1018.55
2022-10-26T10:20:01.087Z,1018.58
2022-10-26T10:21:01.089Z,1018.57
2022-10-26T10:22:01.104Z,1018.59
2022-10-26T10:23:01.105Z,1018.59
2022-10-26T10:24:01.377Z,1018.62
2022-10-26T10:25:01.239Z,1018.58
2022-10-26T10:26:01.124Z,1018.58
2022-10-26T10:27:02.855Z,1018.58
2022-10-26T10:28:01.052Z,1018.56
2022-10-26T10:29:01.067Z,1018.58
2022-10-26T10:30:04.082Z,1018.51
2022-10-26T10:31:01.159Z,1018.52
2022-10-26T10:32:05.855Z,1018.52
2022-10-26T10:33:01.873Z,1018.5
2022-10-26T10:34:02.208Z,1018.53
2022-10-26T10:35:03.016Z,1018.52
2022-10-26T10:36:02.045Z,1018.48
2022-10-26T10:37:08.567Z,1018.51
2022-10-26T10:38:01.385Z,1018.52
2022-10-26T10:39:02.547Z,1018.52
2022-10-26T10:40:02.114Z,1018.53
2022-10-26T10:41:02.332Z,1018.51
2022-10-26T10:42:11.376Z,1018.52
2022-10-26T10:43:02.653Z,1018.55
2022-10-26T10:44:02.733Z,1018.55
2022-10-26T10:45:01.227Z,1018.53
2022-10-26T10:46:01.262Z,1018.51
2022-10-26T10:47:14.299Z,1018.48
2022-10-26T10:48:01.959Z,1018.51
2022-10-26T10:49:01.992Z,1018.53
2022-10-26T10:50:01.102Z,1018.52
2022-10-26T10:51:01.071Z,1018.54
2022-10-26T10:52:16.313Z,1018.51
2022-10-26T10:53:01.090Z,1018.49
2022-10-26T10:54:00.775Z,1018.52
2022-10-26T10:55:00.583Z,1018.49
2022-10-26T10:56:00.177Z,1018.5
2022-10-26T10:56:59.768Z,1018.45
2022-10-26T10:58:01.418Z,1018.48
2022-10-26T10:59:01.058Z,1018.42
2022-10-26T11:00:01.156Z,1018.45
2022-10-26T11:01:01.528Z,1018.46
2022-10-26T11:02:01.419Z,1018.45
2022-10-26T11:03:01.190Z,1018.46
2022-10-26T11:04:01.775Z,1018.46
2022-10-26T11:05:01.081Z,1018.48
2022-10-26T11:06:01.059Z,1018.45
2022-10-26T11:07:01.051Z,1018.5
2022-10-26T11:08:01.465Z,1018.48
2022-10-26T11:09:01.221Z,1018.42
2022-10-26T11:10:01.112Z,1018.46
2022-10-26T11:11:01.101Z,1018.47
2022-10-26T11:12:01.131Z,1018.46
2022-10-26T11:13:01.074Z,1018.45
2022-10-26T11:14:00.710Z,1018.52
2022-10-26T11:15:00.315Z,1018.54
2022-10-26T11:16:00.000Z,1018.5
2022-10-26T11:16:59.712Z,1018.52
2022-10-26T11:18:01.841Z,1018.56
2022-10-26T11:19:01.464Z,1018.54
2022-10-26T11:20:02.734Z,1018.6
2022-10-26T11:21:02.673Z,1018.5
2022-10-26T11:22:01.388Z,1018.47
2022-10-26T11:23:02.234Z,1018.53
2022-10-26T11:24:02.106Z,1018.56
2022-10-26T11:25:02.016Z,1018.5
2022-10-26T11:26:00.478Z,1018.48
2022-10-26T11:27:00.187Z,1018.49
2022-10-26T11:27:59.865Z,1018.46
2022-10-26T11:29:01.800Z,1018.44
2022-10-26T11:30:01.137Z,1018.43
2022-10-26T11:31:01.998Z,1018.46
2022-10-26T11:32:01.144Z,1018.41
2022-10-26T11:33:01.258Z,1018.43
2022-10-26T11:34:00.766Z,1018.41
2022-10-26T11:35:00.334Z,1018.45
2022-10-26T11:35:59.907Z,1018.45
2022-10-26T11:36:59.516Z,1018.45
2022-10-26T11:38:01.078Z,1018.42
2022-10-26T11:39:04.024Z,1018.39
2022-10-26T11:40:01.082Z,1018.4
2022-10-26T11:41:01.472Z,1018.4
2022-10-26T11:42:02.196Z,1018.41
2022-10-26T11:43:01.103Z,1018.39
2022-10-26T11:44:01.119Z,1018.35
2022-10-26T11:45:01.129Z,1018.4
2022-10-26T11:46:01.068Z,1018.36
2022-10-26T11:47:01.430Z,1018.38
2022-10-26T11:48:01.061Z,1018.35
2022-10-26T11:49:01.171Z,1018.32
2022-10-26T11:50:01.149Z,1018.32
2022-10-26T11:51:01.159Z,1018.26
2022-10-26T11:52:01.785Z,1018.31
2022-10-26T11:53:01.122Z,1018.33
2022-10-26T11:54:01.782Z,1018.34
2022-10-26T11:55:01.078Z,1018.36
2022-10-26T11:56:01.113Z,1018.32
2022-10-26T11:57:01.089Z,1018.31
2022-10-26T11:58:01.292Z,1018.3
2022-10-26T12:00:01.145Z,1018.29
2022-10-26T12:01:00.913Z,1018.32
2022-10-26T12:02:00.614Z,1018.28
2022-10-26T12:03:01.460Z,1018.32
2022-10-26T12:04:02.379Z,1018.3
2022-10-26T12:05:01.143Z,1018.31
2022-10-26T12:06:01.160Z,1018.29
2022-10-26T12:07:01.149Z,1018.3
2022-10-26T12:08:03.429Z,1018.31
2022-10-26T12:09:01.064Z,1018.32
2022-10-26T12:10:01.076Z,1018.32